createdAt,value
2019-03-28T00:00:12.906Z,10.00
2019-03-28T00:02:42.351Z,10.00
2019-03-28T00:05:11.785Z,10.00
2019-03-28T00:07:41.099Z,10.00
2019-03-28T00:10:10.779Z,10.00
2019-03-28T00:12:40.423Z,10.00
2019-03-28T00:15:09.842Z,10.00
2019-03-28T00:17:39.134Z,10.00
2019-03-28T00:20:10.063Z,10.00
2019-03-28T00:22:44.357Z,9.90
2019-03-28T00:25:18.148Z,9.90
2019-03-28T00:27:47.765Z,9.90
2019-03-28T00:30:19.248Z,9.90
2019-03-28T00:32:48.970Z,9.80
2019-03-28T00:35:18.267Z,9.80
2019-03-28T00:37:47.562Z,9.80
2019-03-28T00:40:16.969Z,9.90
2019-03-28T00:42:46.277Z,9.80
2019-03-28T00:45:15.880Z,9.90
2019-03-28T00:47:45.241Z,9.90
2019-03-28T00:50:14.706Z,9.80
2019-03-28T00:52:44.003Z,9.80
2019-03-28T00:55:13.550Z,9.80
2019-03-28T00:57:43.176Z,9.80
2019-03-28T01:00:14.305Z,9.80
2019-03-28T01:02:43.666Z,9.70
2019-03-28T01:05:14.528Z,9.70
2019-03-28T01:07:43.890Z,9.70
2019-03-28T01:10:14.134Z,9.70
2019-03-28T01:12:43.423Z,9.70
2019-03-28T01:15:12.858Z,9.70
2019-03-28T01:17:42.195Z,9.70
2019-03-28T01:20:14.305Z,9.70
2019-03-28T01:22:43.611Z,9.60
2019-03-28T01:25:13.276Z,9.70
2019-03-28T01:27:42.580Z,9.70
2019-03-28T01:30:12.004Z,9.70
2019-03-28T01:32:41.352Z,9.70
2019-03-28T01:35:10.724Z,9.70
2019-03-28T01:37:40.018Z,9.60
2019-03-28T01:40:09.798Z,9.60
2019-03-28T01:42:39.358Z,9.50
2019-03-28T01:45:09.062Z,9.60
2019-03-28T01:47:38.402Z,9.60
2019-03-28T01:50:08.099Z,9.50
2019-03-28T01:52:37.402Z,9.50
2019-03-28T01:55:08.063Z,9.50
2019-03-28T01:57:37.719Z,9.60
2019-03-28T02:00:10.624Z,9.50
2019-03-28T02:02:39.971Z,9.50
2019-03-28T02:05:09.673Z,9.50
2019-03-28T02:07:38.978Z,9.50
2019-03-28T02:10:08.539Z,9.40
2019-03-28T02:12:37.845Z,9.50
2019-03-28T02:15:09.051Z,9.40
2019-03-28T02:17:38.466Z,9.50
2019-03-28T02:20:09.069Z,9.50
2019-03-28T02:22:38.362Z,9.50
2019-03-28T02:25:08.519Z,9.50
2019-03-28T02:27:37.838Z,9.50
2019-03-28T02:30:08.852Z,9.50
2019-03-28T02:32:38.182Z,9.50
2019-03-28T02:35:07.791Z,9.50
2019-03-28T02:37:37.094Z,9.50
2019-03-28T02:40:08.558Z,9.50
2019-03-28T02:42:37.854Z,9.50
2019-03-28T02:45:08.766Z,9.40
2019-03-28T02:47:38.105Z,9.50
2019-03-28T02:50:08.308Z,9.50
2019-03-28T02:52:37.644Z,9.50
2019-03-28T02:55:10.465Z,9.50
2019-03-28T02:57:42.100Z,9.50
2019-03-28T03:00:11.352Z,9.40
2019-03-28T03:02:40.885Z,9.40
2019-03-28T03:05:10.384Z,9.40
2019-03-28T03:07:39.672Z,9.40
2019-03-28T03:10:09.472Z,9.40
2019-03-28T03:12:38.769Z,9.40
2019-03-28T03:15:09.047Z,9.40
2019-03-28T03:17:38.385Z,9.40
2019-03-28T03:20:09.601Z,9.30
2019-03-28T03:22:38.900Z,9.30
2019-03-28T03:25:10.790Z,9.30
2019-03-28T03:27:56.288Z,9.30
2019-03-28T03:30:11.815Z,9.30
2019-03-28T03:32:41.169Z,9.20
2019-03-28T03:35:11.388Z,9.20
2019-03-28T03:37:40.690Z,9.20
2019-03-28T03:40:10.734Z,9.20
2019-03-28T03:42:40.036Z,9.20
2019-03-28T03:45:10.467Z,9.20
2019-03-28T03:47:39.803Z,9.30
2019-03-28T03:50:10.102Z,9.30
2019-03-28T03:52:39.397Z,9.20
2019-03-28T03:55:08.835Z,9.20
2019-03-28T03:57:38.129Z,9.20
2019-03-28T04:00:08.442Z,9.20
2019-03-28T04:02:38.059Z,9.20
2019-03-28T04:05:08.085Z,9.30
2019-03-28T04:07:37.364Z,9.20
2019-03-28T04:10:07.991Z,9.20
2019-03-28T04:12:37.367Z,9.30
2019-03-28T04:15:06.688Z,9.20
2019-03-28T04:17:36.028Z,9.30
2019-03-28T04:20:08.066Z,9.20
2019-03-28T04:22:37.501Z,9.20
2019-03-28T04:25:07.072Z,9.20
2019-03-28T04:27:36.392Z,9.20
2019-03-28T04:30:08.554Z,9.30
2019-03-28T04:32:38.253Z,9.30
2019-03-28T04:35:07.687Z,9.30
2019-03-28T04:37:36.984Z,9.30
2019-03-28T04:40:08.762Z,9.30
2019-03-28T04:42:38.237Z,9.30
2019-03-28T04:45:08.222Z,9.20
2019-03-28T04:47:40.286Z,9.20
2019-03-28T04:50:10.619Z,9.30
2019-03-28T04:52:39.940Z,9.20
2019-03-28T04:55:09.592Z,9.20
2019-03-28T04:57:40.995Z,9.10
2019-03-28T05:00:13.550Z,9.20
2019-03-28T05:02:45.937Z,9.20
2019-03-28T05:05:13.933Z,9.20
2019-03-28T05:07:43.234Z,9.10
2019-03-28T05:10:15.329Z,9.10
2019-03-28T05:12:45.171Z,9.10
2019-03-28T05:15:14.812Z,9.10
2019-03-28T05:17:44.163Z,9.20
2019-03-28T05:20:13.782Z,9.20
2019-03-28T05:22:43.410Z,9.20
2019-03-28T05:25:12.930Z,9.20
2019-03-28T05:27:42.233Z,9.30
2019-03-28T05:30:13.163Z,9.30
2019-03-28T05:32:42.744Z,9.30
2019-03-28T05:35:12.869Z,9.20
2019-03-28T05:37:42.469Z,9.20
2019-03-28T05:40:12.254Z,9.10
2019-03-28T05:42:41.888Z,9.20
2019-03-28T05:45:11.901Z,9.20
2019-03-28T05:47:41.936Z,9.20
2019-03-28T05:50:11.294Z,9.20
2019-03-28T05:52:40.849Z,9.20
2019-03-28T05:55:10.559Z,9.20
2019-03-28T05:57:39.885Z,9.10
2019-03-28T06:00:10.191Z,9.00
2019-03-28T06:02:40.065Z,9.00
2019-03-28T06:05:09.427Z,9.10
2019-03-28T06:07:38.731Z,9.20
2019-03-28T06:10:10.374Z,9.20
2019-03-28T06:12:39.746Z,9.20
2019-03-28T06:15:09.461Z,9.20
2019-03-28T06:17:38.814Z,9.10
2019-03-28T06:20:10.034Z,9.20
2019-03-28T06:22:39.675Z,9.20
2019-03-28T06:25:09.566Z,9.20
2019-03-28T06:27:38.842Z,9.20
2019-03-28T06:30:10.261Z,9.10
2019-03-28T06:32:43.353Z,9.20
2019-03-28T06:35:11.093Z,9.20
2019-03-28T06:37:40.722Z,9.30
2019-03-28T06:40:10.857Z,9.30
2019-03-28T06:42:40.456Z,9.20
2019-03-28T06:45:10.313Z,9.20
2019-03-28T06:47:39.673Z,9.30
2019-03-28T06:50:09.302Z,9.40
2019-03-28T06:52:38.597Z,9.50
2019-03-28T06:55:08.459Z,9.50
2019-03-28T06:57:37.763Z,9.40
2019-03-28T07:00:10.153Z,9.50
2019-03-28T07:02:39.487Z,9.50
2019-03-28T07:05:09.296Z,9.50
2019-03-28T07:07:38.896Z,9.50
2019-03-28T07:10:09.190Z,9.60
2019-03-28T07:12:38.560Z,9.60
2019-03-28T07:15:09.657Z,9.60
2019-03-28T07:17:39.109Z,9.50
2019-03-28T07:20:09.539Z,9.50
2019-03-28T07:22:38.794Z,9.60
2019-03-28T07:25:08.951Z,9.70
2019-03-28T07:27:38.279Z,9.70
2019-03-28T07:30:10.891Z,9.80
2019-03-28T07:32:43.114Z,9.80
2019-03-28T07:35:11.396Z,9.80
2019-03-28T07:37:40.702Z,9.90
2019-03-28T07:40:12.096Z,9.90
2019-03-28T07:42:41.664Z,9.80
2019-03-28T07:45:12.814Z,9.80
2019-03-28T07:47:42.164Z,9.90
2019-03-28T07:50:13.593Z,9.90
2019-03-28T07:52:43.170Z,10.00
2019-03-28T07:55:16.155Z,10.00
2019-03-28T07:57:44.015Z,10.10
2019-03-28T08:00:15.470Z,10.20
2019-03-28T08:02:45.047Z,10.10
2019-03-28T08:05:15.258Z,10.10
2019-03-28T08:07:45.749Z,10.00
2019-03-28T08:10:17.072Z,10.10
2019-03-28T08:12:46.378Z,10.10
2019-03-28T08:15:16.402Z,10.10
2019-03-28T08:17:45.747Z,10.10
2019-03-28T08:20:15.486Z,10.20
2019-03-28T08:22:44.775Z,10.20
2019-03-28T08:25:15.363Z,10.20
2019-03-28T08:27:44.676Z,10.20
2019-03-28T08:30:18.595Z,10.30
2019-03-28T08:32:45.372Z,10.30
2019-03-28T08:35:15.215Z,10.30
2019-03-28T08:37:45.360Z,10.30
2019-03-28T08:40:19.359Z,10.30
2019-03-28T08:42:48.665Z,10.20
2019-03-28T08:45:17.970Z,10.30
2019-03-28T08:47:47.381Z,10.30
2019-03-28T08:50:16.684Z,10.30
2019-03-28T08:52:46.000Z,10.30
2019-03-28T08:55:15.362Z,10.30
2019-03-28T08:57:44.667Z,10.40
2019-03-28T09:00:16.795Z,10.40
2019-03-28T09:02:46.340Z,10.40
2019-03-28T09:05:15.659Z,10.40
2019-03-28T09:07:44.963Z,10.40
2019-03-28T09:10:14.713Z,10.50
2019-03-28T09:12:44.011Z,10.50
2019-03-28T09:15:14.549Z,10.50
2019-03-28T09:17:44.261Z,10.60
2019-03-28T09:20:13.700Z,10.70
2019-03-28T09:22:43.012Z,10.80
2019-03-28T09:25:13.179Z,10.80
2019-03-28T09:27:42.560Z,10.70
2019-03-28T09:30:14.220Z,10.80
2019-03-28T09:32:43.592Z,10.70
2019-03-28T09:35:17.547Z,10.70
2019-03-28T09:37:46.878Z,10.80
2019-03-28T09:40:16.232Z,10.90
2019-03-28T09:42:45.559Z,11.10
2019-03-28T09:45:15.010Z,11.10
2019-03-28T09:47:44.387Z,11.10
2019-03-28T09:50:15.388Z,11.10
2019-03-28T09:52:44.827Z,11.20
2019-03-28T09:55:14.141Z,11.20
2019-03-28T09:57:43.720Z,11.30
2019-03-28T10:00:14.476Z,11.20
2019-03-28T10:02:44.359Z,11.00
2019-03-28T10:05:13.997Z,11.20
2019-03-28T10:07:43.374Z,11.10
2019-03-28T10:10:14.395Z,11.20
2019-03-28T10:12:44.228Z,11.30
2019-03-28T10:15:14.355Z,11.30
2019-03-28T10:17:43.665Z,11.20
2019-03-28T10:20:13.374Z,11.20
2019-03-28T10:22:42.730Z,11.40
2019-03-28T10:25:14.492Z,11.40
2019-03-28T10:27:43.981Z,11.50
2019-03-28T10:30:15.152Z,11.60
2019-03-28T10:32:44.463Z,11.60
2019-03-28T10:35:18.411Z,11.70
2019-03-28T10:37:47.779Z,11.70
2019-03-28T10:40:17.098Z,11.70
2019-03-28T10:42:46.412Z,11.80
2019-03-28T10:45:15.998Z,11.90
2019-03-28T10:47:45.291Z,12.00
2019-03-28T10:50:14.680Z,12.20
2019-03-28T10:52:44.037Z,12.30
2019-03-28T10:55:13.784Z,12.30
2019-03-28T10:57:43.093Z,12.30
2019-03-28T11:00:23.427Z,12.50
2019-03-28T11:02:44.604Z,12.30
2019-03-28T11:05:14.578Z,12.30
2019-03-28T11:07:44.126Z,12.40
2019-03-28T11:10:14.146Z,12.50
2019-03-28T11:12:43.448Z,12.50
2019-03-28T11:15:13.264Z,12.60
2019-03-28T11:17:42.564Z,12.60
2019-03-28T11:20:12.114Z,12.80
2019-03-28T11:22:41.478Z,13.00
2019-03-28T11:25:10.858Z,13.00
2019-03-28T11:27:40.423Z,13.20
2019-03-28T11:30:11.681Z,12.90
2019-03-28T11:32:40.984Z,13.00
2019-03-28T11:35:10.818Z,13.00
2019-03-28T11:37:40.187Z,12.80
2019-03-28T11:40:12.183Z,13.00
2019-03-28T11:42:41.983Z,13.10
2019-03-28T11:45:11.795Z,13.20
2019-03-28T11:47:41.096Z,13.40
2019-03-28T11:50:13.362Z,13.40
2019-03-28T11:52:43.119Z,13.30
2019-03-28T11:55:13.577Z,13.50
2019-03-28T11:57:42.884Z,13.60
2019-03-28T12:00:16.596Z,13.70
2019-03-28T12:02:45.890Z,13.80
2019-03-28T12:05:15.609Z,13.80
2019-03-28T12:07:45.042Z,13.80
2019-03-28T12:10:15.191Z,13.70
2019-03-28T12:12:44.523Z,13.80
2019-03-28T12:15:14.787Z,14.00
2019-03-28T12:17:44.342Z,14.10
2019-03-28T12:20:14.158Z,14.20
2019-03-28T12:22:43.527Z,14.30
2019-03-28T12:25:13.275Z,14.40
2019-03-28T12:27:42.599Z,14.60
2019-03-28T12:30:15.982Z,14.40
2019-03-28T12:32:45.193Z,14.60
2019-03-28T12:35:14.574Z,14.70
2019-03-28T12:37:43.988Z,14.30
2019-03-28T12:40:14.846Z,14.70
2019-03-28T12:42:44.157Z,14.60
2019-03-28T12:45:14.354Z,14.70
2019-03-28T12:47:43.634Z,14.90
2019-03-28T12:50:16.243Z,14.70
2019-03-28T12:52:45.591Z,14.60
2019-03-28T12:55:15.845Z,15.10
2019-03-28T12:57:48.211Z,15.10
2019-03-28T13:00:20.686Z,14.80
2019-03-28T13:02:50.060Z,14.90
2019-03-28T13:05:19.361Z,15.00
2019-03-28T13:07:48.731Z,15.20
2019-03-28T13:10:19.509Z,15.30
2019-03-28T13:12:48.810Z,15.50
2019-03-28T13:15:18.180Z,15.70
2019-03-28T13:17:47.496Z,15.70
2019-03-28T13:20:16.873Z,15.70
2019-03-28T13:22:46.237Z,15.60
2019-03-28T13:25:15.548Z,15.50
2019-03-28T13:27:44.870Z,15.50
2019-03-28T13:30:15.530Z,15.60
2019-03-28T13:32:45.404Z,15.40
2019-03-28T13:35:14.842Z,15.40
2019-03-28T13:37:44.208Z,15.30
2019-03-28T13:40:16.571Z,15.30
2019-03-28T13:42:45.882Z,15.30
2019-03-28T13:45:17.379Z,15.20
2019-03-28T13:47:46.721Z,15.20
2019-03-28T13:50:19.063Z,14.90
2019-03-28T13:52:48.420Z,14.70
2019-03-28T13:55:18.607Z,14.70
2019-03-28T13:57:48.391Z,14.50
2019-03-28T14:00:21.909Z,14.30
2019-03-28T14:02:58.502Z,14.10
2019-03-28T14:05:23.031Z,14.20
2019-03-28T14:07:52.757Z,14.10
2019-03-28T14:10:22.103Z,14.20
2019-03-28T14:12:51.676Z,14.30
2019-03-28T14:15:21.280Z,14.20
2019-03-28T14:17:50.888Z,14.10
2019-03-28T14:20:22.310Z,14.10
2019-03-28T14:22:52.472Z,14.10
2019-03-28T14:25:21.908Z,14.10
2019-03-28T14:27:51.211Z,14.30
2019-03-28T14:30:20.688Z,14.30
2019-03-28T14:32:53.587Z,14.30
2019-03-28T14:35:21.037Z,14.40
2019-03-28T14:37:50.373Z,14.40
2019-03-28T14:40:19.751Z,14.60
2019-03-28T14:42:49.065Z,15.00
2019-03-28T14:45:18.429Z,15.10
2019-03-28T14:47:47.735Z,15.20
2019-03-28T14:50:21.874Z,15.20
2019-03-28T14:52:51.148Z,15.00
2019-03-28T14:55:20.445Z,15.00
2019-03-28T14:57:50.360Z,14.90
2019-03-28T15:00:46.712Z,14.70
2019-03-28T15:03:25.722Z,14.60
2019-03-28T15:05:47.417Z,14.50
2019-03-28T15:08:18.006Z,14.40
2019-03-28T15:10:47.730Z,14.30
2019-03-28T15:13:17.143Z,14.20
2019-03-28T15:15:46.661Z,14.20
2019-03-28T15:18:16.016Z,14.20
2019-03-28T15:20:45.327Z,14.20
2019-03-28T15:23:14.999Z,14.20
2019-03-28T15:25:44.337Z,14.20
2019-03-28T15:28:13.639Z,14.10
2019-03-28T15:30:42.945Z,14.00
2019-03-28T15:33:12.581Z,13.90
2019-03-28T15:35:41.956Z,13.90
2019-03-28T15:38:11.266Z,13.90
2019-03-28T15:40:40.615Z,13.70
2019-03-28T15:43:09.922Z,13.80
2019-03-28T15:45:40.922Z,13.80
2019-03-28T15:48:10.319Z,13.70
2019-03-28T15:50:39.620Z,13.60
2019-03-28T15:53:08.943Z,13.60
2019-03-28T15:55:38.277Z,13.70
2019-03-28T15:58:22.098Z,13.60
2019-03-28T16:00:39.384Z,13.60
2019-03-28T16:03:08.839Z,13.60
2019-03-28T16:05:38.142Z,13.50
2019-03-28T16:08:07.855Z,13.40
2019-03-28T16:10:37.213Z,13.30
2019-03-28T16:13:06.848Z,13.30
2019-03-28T16:15:36.155Z,13.20
2019-03-28T16:18:07.603Z,13.30
2019-03-28T16:20:36.604Z,13.10
2019-03-28T16:23:05.915Z,13.20
2019-03-28T16:25:35.249Z,13.10
2019-03-28T16:28:04.618Z,13.10
2019-03-28T16:30:37.318Z,13.00
2019-03-28T16:33:08.072Z,13.00
2019-03-28T16:35:37.667Z,13.10
2019-03-28T16:38:06.963Z,13.10
2019-03-28T16:40:36.378Z,13.10
2019-03-28T16:43:05.990Z,13.00
2019-03-28T16:45:35.309Z,13.00
2019-03-28T16:48:04.994Z,13.00
2019-03-28T16:50:34.386Z,13.00
2019-03-28T16:53:03.690Z,13.00
2019-03-28T16:55:33.046Z,13.00
2019-03-28T16:58:02.408Z,12.90
2019-03-28T17:00:38.093Z,13.00
2019-03-28T17:03:08.142Z,13.00
2019-03-28T17:05:37.593Z,13.10
2019-03-28T17:08:07.280Z,13.00
2019-03-28T17:10:46.304Z,12.90
2019-03-28T17:13:16.654Z,12.90
2019-03-28T17:15:45.963Z,13.00
2019-03-28T17:18:18.406Z,13.00
2019-03-28T17:20:46.499Z,13.00
2019-03-28T17:23:15.797Z,13.00
2019-03-28T17:25:45.602Z,13.10
2019-03-28T17:28:15.206Z,13.00
2019-03-28T17:30:44.506Z,12.90
2019-03-28T17:33:13.818Z,12.80
2019-03-28T17:35:43.216Z,12.90
2019-03-28T17:38:12.600Z,12.90
2019-03-28T17:40:41.972Z,12.80
2019-03-28T17:43:11.410Z,12.70
2019-03-28T17:45:41.022Z,12.60
2019-03-28T17:48:10.413Z,12.60
2019-03-28T17:50:39.765Z,12.60
2019-03-28T17:53:09.447Z,12.70
2019-03-28T17:55:38.751Z,12.70
2019-03-28T17:58:08.119Z,12.70
2019-03-28T18:00:37.848Z,12.70
2019-03-28T18:03:09.564Z,12.60
2019-03-28T18:05:40.636Z,12.60
2019-03-28T18:08:09.346Z,12.60
2019-03-28T18:10:38.937Z,12.60
2019-03-28T18:13:08.288Z,12.60
2019-03-28T18:15:37.591Z,12.50
2019-03-28T18:18:06.901Z,12.50
2019-03-28T18:20:36.327Z,12.50
2019-03-28T18:23:05.700Z,12.50
2019-03-28T18:25:35.351Z,12.50
2019-03-28T18:28:04.781Z,12.40
2019-03-28T18:30:37.333Z,12.30
2019-03-28T18:33:06.428Z,12.30
2019-03-28T18:35:35.779Z,12.30
2019-03-28T18:38:05.429Z,12.30
2019-03-28T18:40:34.757Z,12.30
2019-03-28T18:43:04.595Z,12.30
2019-03-28T18:45:34.197Z,12.20
2019-03-28T18:48:03.480Z,12.10
2019-03-28T18:50:32.851Z,12.10
2019-03-28T18:53:02.151Z,12.10
2019-03-28T18:55:31.450Z,12.00
2019-03-28T18:58:00.870Z,12.00
2019-03-28T19:00:30.243Z,12.00
2019-03-28T19:02:59.861Z,11.90
2019-03-28T19:05:29.219Z,11.80
2019-03-28T19:07:58.769Z,11.80
2019-03-28T19:10:28.078Z,11.70
2019-03-28T19:12:57.446Z,11.60
2019-03-28T19:15:26.755Z,11.50
2019-03-28T19:17:56.060Z,11.50
2019-03-28T19:20:25.421Z,11.40
2019-03-28T19:22:54.723Z,11.40
2019-03-28T19:25:24.297Z,11.30
2019-03-28T19:27:53.649Z,11.20
2019-03-28T19:30:34.187Z,11.20
2019-03-28T19:33:06.613Z,11.10
2019-03-28T19:35:36.463Z,11.10
2019-03-28T19:38:08.955Z,11.00
2019-03-28T19:40:36.923Z,11.00
2019-03-28T19:43:19.230Z,10.70
2019-03-28T19:45:38.701Z,10.80
2019-03-28T19:48:08.459Z,10.80
2019-03-28T19:50:37.756Z,10.80
2019-03-28T19:53:11.442Z,10.70
2019-03-28T19:55:40.031Z,10.60
2019-03-28T19:58:13.190Z,10.50
2019-03-28T20:00:40.793Z,10.50
2019-03-28T20:03:10.389Z,10.50
2019-03-28T20:05:47.602Z,10.40
2019-03-28T20:08:16.067Z,10.10
2019-03-28T20:10:41.786Z,10.00
2019-03-28T20:13:11.165Z,10.10
2019-03-28T20:15:40.517Z,10.00
2019-03-28T20:18:10.021Z,9.90
2019-03-28T20:20:39.380Z,9.90
2019-03-28T20:23:08.677Z,9.80
2019-03-28T20:25:37.981Z,9.80
2019-03-28T20:28:07.565Z,9.80
2019-03-28T20:30:36.944Z,9.70
2019-03-28T20:33:06.241Z,9.80
2019-03-28T20:35:35.588Z,9.70
2019-03-28T20:38:05.001Z,9.80
2019-03-28T20:40:34.367Z,9.70
2019-03-28T20:43:03.665Z,9.70
2019-03-28T20:45:33.015Z,9.70
2019-03-28T20:48:02.321Z,9.60
2019-03-28T20:50:31.988Z,9.50
2019-03-28T20:53:01.641Z,9.50
2019-03-28T20:55:30.940Z,9.50
2019-03-28T20:58:00.235Z,9.40
2019-03-28T21:00:41.005Z,9.30
2019-03-28T21:03:10.871Z,9.20
2019-03-28T21:05:40.238Z,9.00
2019-03-28T21:08:09.724Z,9.00
2019-03-28T21:10:39.035Z,9.00
2019-03-28T21:13:09.154Z,9.00
2019-03-28T21:15:39.172Z,9.10
2019-03-28T21:18:08.460Z,8.90
2019-03-28T21:20:40.731Z,8.90
2019-03-28T21:23:10.088Z,8.80
2019-03-28T21:25:39.384Z,8.80
2019-03-28T21:28:08.720Z,8.80
2019-03-28T21:30:47.105Z,8.80
2019-03-28T21:33:09.079Z,8.70
2019-03-28T21:35:39.179Z,8.60
2019-03-28T21:38:09.303Z,8.60
2019-03-28T21:40:38.632Z,8.60
2019-03-28T21:43:07.935Z,8.50
2019-03-28T21:45:37.279Z,8.30
2019-03-28T21:48:06.581Z,8.30
2019-03-28T21:50:36.209Z,8.30
2019-03-28T21:53:06.908Z,8.30
2019-03-28T21:55:39.618Z,8.40
2019-03-28T21:58:08.918Z,8.40
2019-03-28T22:00:38.524Z,8.30
2019-03-28T22:03:07.826Z,8.20
2019-03-28T22:05:37.127Z,8.10
2019-03-28T22:08:07.028Z,8.10
2019-03-28T22:10:36.632Z,8.20
2019-03-28T22:13:06.030Z,8.30
2019-03-28T22:15:35.360Z,8.30
2019-03-28T22:18:04.718Z,8.40
2019-03-28T22:20:34.026Z,8.40
2019-03-28T22:23:03.657Z,8.30
2019-03-28T22:25:32.997Z,8.30
2019-03-28T22:28:02.567Z,8.30
2019-03-28T22:30:31.927Z,8.20
2019-03-28T22:33:01.231Z,8.10
2019-03-28T22:35:30.538Z,8.00
2019-03-28T22:37:59.884Z,8.00
2019-03-28T22:40:29.188Z,7.90
2019-03-28T22:42:58.781Z,7.80
2019-03-28T22:45:28.131Z,7.80
2019-03-28T22:48:10.077Z,7.70
2019-03-28T22:50:28.727Z,7.70
2019-03-28T22:52:58.333Z,7.80
2019-03-28T22:55:27.661Z,7.80
2019-03-28T22:57:56.961Z,7.70
2019-03-28T23:00:29.274Z,7.70
2019-03-28T23:02:58.910Z,7.70
2019-03-28T23:05:28.218Z,7.60
2019-03-28T23:07:57.621Z,7.60
2019-03-28T23:10:26.918Z,7.60
2019-03-28T23:12:56.220Z,7.60
2019-03-28T23:15:25.670Z,7.40
2019-03-28T23:17:54.980Z,7.40
2019-03-28T23:20:24.285Z,7.40
2019-03-28T23:22:53.932Z,7.30
2019-03-28T23:25:23.714Z,7.40
2019-03-28T23:27:53.351Z,7.40
2019-03-28T23:30:22.952Z,7.30
2019-03-28T23:32:52.572Z,7.40
2019-03-28T23:35:22.275Z,7.40
2019-03-28T23:37:51.614Z,7.40
2019-03-28T23:40:20.911Z,7.30
2019-03-28T23:42:50.482Z,7.00
2019-03-28T23:45:20.016Z,7.00
2019-03-28T23:47:49.302Z,7.00
2019-03-28T23:50:18.615Z,6.90
2019-03-28T23:52:47.969Z,7.00
2019-03-28T23:55:17.275Z,7.00
2019-03-28T23:57:46.905Z,7.00
